createdAt,value
2023-03-13T00:01:48.511Z,3.77
2023-03-13T00:04:16.646Z,3.80
2023-03-13T00:06:44.734Z,4.03
2023-03-13T00:09:16.674Z,4.33
2023-03-13T00:11:45.762Z,4.10
2023-03-13T00:14:14.074Z,4.27
2023-03-13T00:16:42.198Z,3.07
2023-03-13T00:19:11.084Z,4.50
2023-03-13T00:21:41.123Z,3.63
2023-03-13T00:24:11.945Z,4.70
2023-03-13T00:26:41.494Z,3.40
2023-03-13T00:29:09.628Z,3.70
2023-03-13T00:31:37.753Z,4.83
2023-03-13T00:34:08.679Z,2.73
2023-03-13T00:36:37.454Z,3.50
2023-03-13T00:39:07.081Z,3.33
2023-03-13T00:41:35.271Z,3.33
2023-03-13T00:44:05.309Z,3.20
2023-03-13T00:46:33.503Z,3.47
2023-03-13T00:49:01.801Z,4.03
2023-03-13T00:51:30.261Z,3.50
2023-03-13T00:54:01.073Z,5.47
2023-03-13T00:56:29.851Z,3.00
2023-03-13T00:58:58.030Z,4.33
2023-03-13T01:01:29.298Z,4.43
2023-03-13T01:03:59.585Z,3.97
2023-03-13T01:06:29.233Z,3.60
2023-03-13T01:08:57.998Z,3.33
2023-03-13T01:11:27.395Z,3.87
2023-03-13T01:13:57.319Z,3.43
2023-03-13T01:16:27.958Z,4.03
2023-03-13T01:18:58.001Z,4.53
2023-03-13T01:21:26.951Z,4.20
2023-03-13T01:23:55.697Z,3.50
2023-03-13T01:26:24.875Z,4.10
2023-03-13T01:28:53.355Z,3.67
2023-03-13T01:31:22.798Z,4.27
2023-03-13T01:37:32.905Z,4.10
2023-03-13T01:40:01.336Z,3.60
2023-03-13T01:50:11.221Z,2.67
2023-03-13T01:52:40.746Z,4.07
2023-03-13T01:55:13.214Z,3.27
2023-03-13T01:57:45.133Z,4.07
2023-03-13T02:00:16.721Z,4.47
2023-03-13T02:02:49.557Z,3.53
2023-03-13T02:05:20.308Z,3.77
2023-03-13T02:07:56.188Z,4.20
2023-03-13T02:10:26.016Z,4.00
2023-03-13T02:12:55.311Z,4.07
2023-03-13T02:15:26.479Z,3.90
2023-03-13T02:17:55.277Z,4.10
2023-03-13T02:20:24.034Z,4.30
2023-03-13T02:23:01.228Z,3.63
2023-03-13T02:25:41.359Z,4.50
2023-03-13T02:28:14.450Z,4.70
2023-03-13T02:30:46.057Z,3.77
2023-03-13T02:33:15.503Z,4.47
2023-03-13T02:35:45.460Z,4.80
2023-03-13T02:38:19.237Z,4.43
2023-03-13T02:40:50.402Z,4.67
2023-03-13T02:43:22.192Z,5.13
2023-03-13T02:46:04.835Z,4.63
2023-03-13T02:48:35.279Z,4.83
2023-03-13T02:51:06.166Z,5.27
2023-03-13T02:53:36.153Z,4.83
2023-03-13T02:56:07.298Z,4.97
2023-03-13T02:58:49.804Z,5.57
2023-03-13T03:06:39.340Z,5.47
2023-03-13T03:09:08.120Z,5.80
2023-03-13T03:11:38.602Z,6.50
2023-03-13T03:14:07.208Z,6.80
2023-03-13T03:16:35.358Z,6.10
2023-03-13T03:19:03.982Z,6.30
2023-03-13T03:21:32.154Z,5.87
2023-03-13T03:24:00.514Z,5.47
2023-03-13T03:26:28.737Z,5.47
2023-03-13T03:28:58.510Z,5.10
2023-03-13T03:31:26.734Z,5.27
2023-03-13T03:33:54.905Z,5.00
2023-03-13T03:36:24.232Z,5.73
2023-03-13T03:38:52.605Z,5.07
2023-03-13T03:41:21.059Z,5.70
2023-03-13T03:43:49.975Z,4.77
2023-03-13T03:46:19.518Z,5.30
2023-03-13T03:48:47.689Z,5.30
2023-03-13T03:51:15.962Z,4.60
2023-03-13T03:53:44.073Z,4.67
2023-03-13T03:56:12.178Z,5.10
2023-03-13T03:58:40.293Z,5.00
2023-03-13T04:01:08.409Z,4.87
2023-03-13T04:03:38.016Z,4.90
2023-03-13T04:06:07.092Z,5.03
2023-03-13T04:08:35.165Z,4.53
2023-03-13T04:11:04.491Z,5.03
2023-03-13T04:13:32.570Z,4.93
2023-03-13T04:16:00.650Z,4.83
2023-03-13T04:18:28.689Z,5.83
2023-03-13T04:21:03.468Z,4.00
2023-03-13T04:23:31.524Z,4.57
2023-03-13T04:25:59.620Z,6.37
2023-03-13T04:28:27.710Z,5.83
2023-03-13T04:31:02.264Z,4.50
2023-03-13T04:33:30.449Z,4.80
2023-03-13T04:35:58.565Z,5.07
2023-03-13T04:38:28.026Z,4.93
2023-03-13T04:40:56.101Z,5.17
2023-03-13T04:43:24.165Z,5.07
2023-03-13T04:45:55.175Z,4.97
2023-03-13T04:48:23.547Z,5.60
2023-03-13T04:50:52.635Z,5.27
2023-03-13T04:53:20.735Z,5.93
2023-03-13T04:55:52.168Z,4.67
2023-03-13T04:58:20.227Z,5.17
2023-03-13T05:00:48.326Z,6.03
2023-03-13T05:03:16.373Z,5.53
2023-03-13T05:05:44.443Z,4.67
2023-03-13T05:08:12.537Z,4.77
2023-03-13T05:10:40.688Z,5.30
2023-03-13T05:13:10.381Z,5.27
2023-03-13T05:15:38.481Z,5.03
2023-03-13T05:18:06.842Z,5.17
2023-03-13T05:20:34.884Z,4.63
2023-03-13T05:23:03.027Z,4.40
2023-03-13T05:25:31.413Z,4.47
2023-03-13T05:27:59.499Z,4.40
2023-03-13T05:30:29.105Z,4.00
2023-03-13T05:32:57.221Z,4.47
2023-03-13T05:35:25.540Z,4.20
2023-03-13T05:37:53.723Z,4.33
2023-03-13T05:40:21.780Z,4.37
2023-03-13T05:42:49.917Z,3.60
2023-03-13T05:45:18.129Z,3.80
2023-03-13T05:47:47.573Z,3.60
2023-03-13T05:50:15.771Z,3.60
2023-03-13T05:52:43.813Z,4.40
2023-03-13T05:55:11.968Z,3.20
2023-03-13T05:57:40.102Z,3.37
2023-03-13T06:00:09.552Z,3.30
2023-03-13T06:02:37.711Z,3.23
2023-03-13T06:05:08.167Z,3.70
2023-03-13T06:07:36.405Z,3.10
2023-03-13T06:10:05.620Z,3.37
2023-03-13T06:12:33.716Z,2.83
2023-03-13T06:15:01.894Z,3.00
2023-03-13T06:17:30.594Z,3.13
2023-03-13T06:19:58.879Z,2.60
2023-03-13T06:22:28.643Z,2.67
2023-03-13T06:24:57.127Z,2.63
2023-03-13T06:27:25.289Z,2.97
2023-03-13T06:29:53.406Z,2.57
2023-03-13T06:32:21.746Z,2.90
2023-03-13T06:34:49.944Z,2.60
2023-03-13T06:37:18.006Z,2.47
2023-03-13T06:39:47.532Z,3.33
2023-03-13T06:42:15.672Z,2.37
2023-03-13T06:49:20.951Z,2.87
2023-03-13T06:51:49.067Z,2.87
2023-03-13T06:54:17.286Z,2.93
2023-03-13T06:56:46.732Z,3.23
2023-03-13T06:59:14.945Z,1.97
2023-03-13T07:01:43.006Z,2.17
2023-03-13T07:04:14.422Z,2.47
2023-03-13T07:06:43.011Z,2.20
2023-03-13T07:09:11.750Z,2.23
2023-03-13T07:11:39.824Z,4.63
2023-03-13T07:14:16.896Z,2.13
2023-03-13T07:16:46.054Z,1.70
2023-03-13T07:19:15.262Z,2.10
2023-03-13T07:21:44.125Z,2.00
2023-03-13T07:24:12.389Z,2.23
2023-03-13T07:26:46.466Z,2.27
2023-03-13T07:29:23.894Z,2.40
2023-03-13T07:31:52.086Z,2.27
2023-03-13T07:34:20.251Z,2.90
2023-03-13T07:36:48.381Z,2.37
2023-03-13T07:39:16.512Z,2.27
2023-03-13T07:41:44.557Z,2.07
2023-03-13T07:44:12.660Z,2.53
2023-03-13T07:46:42.136Z,1.93
2023-03-13T07:49:10.251Z,2.40
2023-03-13T07:51:44.040Z,2.33
2023-03-13T07:54:12.777Z,2.30
2023-03-13T07:56:41.532Z,1.90
2023-03-13T07:59:09.919Z,1.90
2023-03-13T08:01:38.077Z,2.17
2023-03-13T08:04:07.705Z,1.67
2023-03-13T08:06:36.847Z,2.20
2023-03-13T08:09:05.605Z,1.87
2023-03-13T08:11:33.868Z,1.93
2023-03-13T08:14:01.904Z,2.20
2023-03-13T08:16:31.366Z,2.07
2023-03-13T08:19:01.080Z,2.30
2023-03-13T08:21:32.600Z,1.73
2023-03-13T08:24:03.430Z,1.87
2023-03-13T08:26:32.859Z,1.80
2023-03-13T08:29:02.279Z,2.00
2023-03-13T08:31:32.651Z,1.60
2023-03-13T08:34:01.114Z,1.93
2023-03-13T08:36:33.299Z,1.70
2023-03-13T08:39:02.951Z,2.33
2023-03-13T08:41:33.941Z,1.73
2023-03-13T08:44:02.157Z,1.80
2023-03-13T08:46:31.472Z,2.13
2023-03-13T08:48:59.872Z,2.20
2023-03-13T08:51:30.950Z,2.47
2023-03-13T08:53:59.274Z,2.00
2023-03-13T08:56:30.414Z,2.20
2023-03-13T08:58:59.950Z,1.80
2023-03-13T09:01:30.405Z,2.37
2023-03-13T09:04:00.646Z,2.20
2023-03-13T09:06:32.667Z,2.53
2023-03-13T09:09:00.847Z,2.47
2023-03-13T09:11:29.335Z,2.03
2023-03-13T09:13:59.331Z,2.10
2023-03-13T09:16:29.608Z,1.93
2023-03-13T09:18:58.618Z,2.20
2023-03-13T09:21:29.083Z,1.77
2023-03-13T09:23:58.995Z,2.30
2023-03-13T09:26:27.939Z,1.80
2023-03-13T09:28:56.793Z,2.37
2023-03-13T09:31:26.427Z,1.50
2023-03-13T09:33:55.453Z,1.70
2023-03-13T09:36:24.848Z,1.83
2023-03-13T09:38:53.935Z,1.30
2023-03-13T09:41:26.995Z,1.65
2023-03-13T09:44:01.815Z,1.50
2023-03-13T09:46:37.338Z,1.48
2023-03-13T09:49:11.465Z,1.43
2023-03-13T09:51:42.970Z,1.50
2023-03-13T09:54:21.825Z,1.30
2023-03-13T09:56:56.100Z,1.50
2023-03-13T09:59:30.166Z,1.27
2023-03-13T10:02:01.562Z,1.10
2023-03-13T10:04:35.243Z,1.70
2023-03-13T10:07:04.748Z,1.77
2023-03-13T10:09:34.044Z,1.70
2023-03-13T10:12:12.063Z,1.73
2023-03-13T10:14:45.237Z,1.70
2023-03-13T10:17:23.615Z,1.40
2023-03-13T10:19:59.808Z,1.50
2023-03-13T10:22:32.181Z,1.63
2023-03-13T10:25:04.441Z,2.67
2023-03-13T10:27:43.439Z,1.40
2023-03-13T10:30:25.066Z,1.37
2023-03-13T10:32:55.776Z,1.60
2023-03-13T10:35:26.529Z,1.43
2023-03-13T10:38:04.580Z,1.30
2023-03-13T10:40:32.877Z,1.30
2023-03-13T10:43:07.929Z,0.90
2023-03-13T10:45:37.895Z,1.07
2023-03-13T10:48:14.600Z,1.10
2023-03-13T10:50:45.641Z,1.27
2023-03-13T10:53:27.055Z,1.60
2023-03-13T10:55:56.350Z,1.00
2023-03-13T10:58:31.836Z,1.08
2023-03-13T11:01:17.325Z,1.23
2023-03-13T11:03:47.098Z,1.35
2023-03-13T11:06:32.588Z,1.00
2023-03-13T11:09:06.355Z,1.10
2023-03-13T11:11:46.102Z,1.33
2023-03-13T11:14:21.008Z,1.50
2023-03-13T11:16:50.918Z,1.02
2023-03-13T11:19:42.598Z,1.00
2023-03-13T11:22:42.950Z,1.13
2023-03-13T11:25:24.201Z,1.17
2023-03-13T11:28:12.616Z,1.58
2023-03-13T11:30:52.664Z,1.00
2023-03-13T11:33:30.255Z,1.20
2023-03-13T11:36:03.854Z,1.37
2023-03-13T11:38:37.359Z,1.00
2023-03-13T11:41:20.300Z,1.10
2023-03-13T11:44:05.464Z,1.10
2023-03-13T11:46:44.774Z,1.30
2023-03-13T11:49:41.015Z,0.80
2023-03-13T11:52:25.420Z,1.20
2023-03-13T11:55:04.468Z,1.10
2023-03-13T11:57:37.852Z,0.65
2023-03-13T12:00:22.905Z,1.20
2023-03-13T12:02:57.625Z,0.98
2023-03-13T12:05:29.037Z,0.90
2023-03-13T12:08:01.266Z,1.10
2023-03-13T12:10:33.075Z,0.70
2023-03-13T12:13:07.092Z,1.20
2023-03-13T12:15:40.310Z,0.85
2023-03-13T12:18:19.087Z,1.25
2023-03-13T12:20:55.969Z,0.93
2023-03-13T12:23:31.131Z,1.05
2023-03-13T12:26:05.518Z,1.20
2023-03-13T12:28:39.698Z,1.27
2023-03-13T12:31:20.459Z,1.40
2023-03-13T12:33:55.020Z,1.25
2023-03-13T12:36:30.323Z,1.58
2023-03-13T12:39:05.986Z,1.00
2023-03-13T12:41:41.977Z,1.10
2023-03-13T12:44:12.911Z,1.48
2023-03-13T12:46:47.068Z,1.10
2023-03-13T12:49:44.553Z,1.30
2023-03-13T12:52:36.183Z,1.33
2023-03-13T12:55:29.528Z,1.30
2023-03-13T12:58:14.956Z,0.70
2023-03-13T13:00:46.141Z,0.93
2023-03-13T13:03:26.573Z,0.90
2023-03-13T13:06:11.128Z,1.00
2023-03-13T13:08:42.186Z,1.48
2023-03-13T13:11:48.626Z,0.90
2023-03-13T13:14:58.749Z,1.17
2023-03-13T13:17:52.329Z,0.90
2023-03-13T13:20:35.845Z,1.35
2023-03-13T13:23:34.086Z,1.05
2023-03-13T13:26:47.975Z,1.17
2023-03-13T13:29:56.038Z,1.55
2023-03-13T13:32:37.506Z,0.80
2023-03-13T13:35:20.012Z,0.82
2023-03-13T13:37:49.663Z,0.75
2023-03-13T13:40:27.212Z,0.80
2023-03-13T13:42:57.381Z,0.75
2023-03-13T13:45:31.497Z,0.70
2023-03-13T13:48:17.445Z,1.08
2023-03-13T13:51:23.789Z,0.70
2023-03-13T13:53:55.803Z,0.85
2023-03-13T13:56:36.557Z,1.10
2023-03-13T13:59:17.783Z,0.88
2023-03-13T14:01:46.423Z,0.98
2023-03-13T14:04:18.117Z,0.90
2023-03-13T14:06:49.840Z,0.73
2023-03-13T14:09:30.767Z,0.80
2023-03-13T14:12:00.283Z,0.70
2023-03-13T14:14:28.375Z,1.27
2023-03-13T14:16:58.231Z,0.90
2023-03-13T14:19:30.052Z,0.75
2023-03-13T14:22:03.178Z,0.90
2023-03-13T14:24:31.366Z,0.60
2023-03-13T14:27:00.955Z,1.15
2023-03-13T14:29:29.104Z,1.13
2023-03-13T14:31:58.947Z,0.90
2023-03-13T14:34:31.516Z,1.05
2023-03-13T14:37:17.247Z,0.90
2023-03-13T14:39:48.786Z,1.15
2023-03-13T14:42:19.947Z,0.88
2023-03-13T14:44:50.340Z,0.98
2023-03-13T14:47:23.910Z,1.55
2023-03-13T14:49:58.794Z,1.45
2023-03-13T14:52:28.731Z,0.90
2023-03-13T14:54:59.067Z,1.40
2023-03-13T14:57:28.944Z,1.42
2023-03-13T15:00:17.724Z,1.75
2023-03-13T15:02:47.218Z,0.75
2023-03-13T15:05:33.751Z,1.10
2023-03-13T15:08:01.915Z,1.40
2023-03-13T15:10:36.742Z,6.70
2023-03-13T15:13:16.640Z,1.70
2023-03-13T15:15:44.989Z,2.38
2023-03-13T15:18:23.478Z,1.25
2023-03-13T15:20:52.429Z,2.17
2023-03-13T15:23:21.681Z,0.80
2023-03-13T15:25:50.531Z,1.45
2023-03-13T15:28:21.376Z,4.78
2023-03-13T15:30:51.248Z,1.80
2023-03-13T15:33:23.121Z,1.10
2023-03-13T15:35:52.110Z,1.38
2023-03-13T15:38:22.678Z,0.95
2023-03-13T15:40:51.572Z,1.33
2023-03-13T15:43:20.848Z,0.98
2023-03-13T15:45:51.746Z,1.17
2023-03-13T15:48:23.585Z,1.17
2023-03-13T15:50:52.092Z,1.67
2023-03-13T15:53:23.917Z,1.02
2023-03-13T15:55:54.458Z,1.30
2023-03-13T15:58:23.044Z,1.10
2023-03-13T16:00:51.251Z,1.40
2023-03-13T16:03:24.819Z,1.10
2023-03-13T16:05:53.914Z,1.00
2023-03-13T16:08:34.593Z,1.30
2023-03-13T16:11:03.207Z,1.20
2023-03-13T16:13:31.517Z,1.25
2023-03-13T16:15:59.824Z,1.00
2023-03-13T16:18:29.276Z,1.25
2023-03-13T16:20:57.349Z,1.20
2023-03-13T16:23:25.434Z,1.00
2023-03-13T16:25:53.936Z,1.10
2023-03-13T16:28:22.004Z,1.10
2023-03-13T16:30:50.128Z,1.70
2023-03-13T16:33:18.242Z,1.20
2023-03-13T16:35:47.792Z,1.00
2023-03-13T16:38:15.932Z,1.37
2023-03-13T16:40:44.045Z,1.03
2023-03-13T16:43:13.734Z,1.17
2023-03-13T16:45:42.046Z,1.17
2023-03-13T16:48:24.656Z,1.20
2023-03-13T16:50:54.160Z,1.13
2023-03-13T16:53:22.243Z,1.07
2023-03-13T16:55:51.383Z,1.00
2023-03-13T16:58:20.092Z,1.40
2023-03-13T17:03:36.351Z,1.00
2023-03-13T17:06:06.353Z,1.40
2023-03-13T17:08:34.462Z,1.30
2023-03-13T17:11:02.600Z,1.70
2023-03-13T17:13:30.694Z,1.40
2023-03-13T17:16:00.893Z,1.20
2023-03-13T17:18:28.937Z,1.20
2023-03-13T17:20:57.019Z,1.33
2023-03-13T17:23:26.471Z,0.93
2023-03-13T17:25:54.607Z,1.53
2023-03-13T17:28:22.692Z,1.50
2023-03-13T17:30:50.883Z,1.67
2023-03-13T17:33:19.008Z,1.30
2023-03-13T17:35:47.263Z,1.47
2023-03-13T17:38:15.435Z,1.50
2023-03-13T17:40:44.877Z,1.87
2023-03-13T17:43:13.407Z,1.50
2023-03-13T17:45:41.440Z,1.60
2023-03-13T17:48:13.911Z,1.20
2023-03-13T17:50:42.234Z,1.30
2023-03-13T17:53:10.327Z,1.67
2023-03-13T17:55:38.412Z,1.47
2023-03-13T17:58:07.857Z,1.33
2023-03-13T18:00:35.987Z,1.10
2023-03-13T18:03:04.288Z,1.60
2023-03-13T18:05:32.372Z,1.47
2023-03-13T18:08:00.573Z,1.30
2023-03-13T18:10:30.704Z,1.37
2023-03-13T18:12:59.282Z,1.70
2023-03-13T18:15:28.948Z,1.40
2023-03-13T18:17:57.032Z,1.50
2023-03-13T18:20:28.566Z,1.50
2023-03-13T18:23:00.219Z,1.60
2023-03-13T18:25:28.610Z,1.30
2023-03-13T18:27:56.937Z,1.53
2023-03-13T18:30:26.504Z,1.67
2023-03-13T18:32:56.223Z,1.67
2023-03-13T18:35:24.380Z,1.20
2023-03-13T18:37:52.446Z,1.93
2023-03-13T18:40:22.559Z,1.80
2023-03-13T18:42:50.787Z,1.63
2023-03-13T18:45:21.317Z,1.53
2023-03-13T18:47:49.746Z,1.53
2023-03-13T18:50:25.140Z,1.53
2023-03-13T18:52:53.542Z,1.33
2023-03-13T18:55:21.656Z,1.33
2023-03-13T18:57:50.100Z,2.33
2023-03-13T19:00:20.884Z,1.90
2023-03-13T19:02:49.606Z,2.50
2023-03-13T19:05:19.829Z,2.63
2023-03-13T19:07:48.668Z,2.80
2023-03-13T19:10:24.151Z,2.50
2023-03-13T19:12:53.490Z,2.97
2023-03-13T19:15:24.490Z,3.40
2023-03-13T19:17:54.030Z,3.60
2023-03-13T19:20:25.027Z,3.33
2023-03-13T19:22:55.063Z,3.43
2023-03-13T19:25:23.385Z,3.07
2023-03-13T19:27:51.578Z,3.07
2023-03-13T19:30:21.104Z,3.10
2023-03-13T19:32:49.235Z,3.10
2023-03-13T19:35:21.008Z,3.43
2023-03-13T19:37:50.812Z,3.17
2023-03-13T19:40:21.582Z,4.07
2023-03-13T19:42:49.723Z,3.37
2023-03-13T19:45:19.710Z,3.27
2023-03-13T19:47:47.876Z,3.07
2023-03-13T19:50:21.501Z,3.90
2023-03-13T19:52:51.108Z,3.67
2023-03-13T19:55:19.215Z,3.43
2023-03-13T19:57:47.329Z,4.03
2023-03-13T20:00:21.682Z,4.03
2023-03-13T20:02:49.880Z,3.57
2023-03-13T20:05:17.987Z,3.30
2023-03-13T20:07:46.737Z,3.67
2023-03-13T20:10:16.602Z,3.63
2023-03-13T20:12:44.719Z,3.80
2023-03-13T20:15:13.341Z,3.67
2023-03-13T20:17:41.457Z,3.60
2023-03-13T20:20:11.557Z,4.20
2023-03-13T20:22:39.666Z,3.70
2023-03-13T20:25:08.557Z,5.77
2023-03-13T20:27:39.144Z,4.43
2023-03-13T20:30:08.899Z,4.57
2023-03-13T20:32:41.195Z,4.40
2023-03-13T20:35:14.388Z,4.73
2023-03-13T20:37:42.858Z,4.20
2023-03-13T20:40:12.194Z,4.47
2023-03-13T20:42:41.664Z,4.37
2023-03-13T20:45:10.625Z,4.43
2023-03-13T20:47:38.717Z,4.30
2023-03-13T20:50:07.805Z,6.00
2023-03-13T20:52:36.049Z,4.73
2023-03-13T20:55:04.228Z,4.97
2023-03-13T20:57:32.363Z,4.63
2023-03-13T21:00:01.807Z,8.63
2023-03-13T21:02:30.131Z,6.60
2023-03-13T21:04:58.289Z,5.37
2023-03-13T21:07:26.411Z,5.47
2023-03-13T21:09:54.575Z,5.17
2023-03-13T21:12:22.662Z,7.20
2023-03-13T21:14:53.516Z,5.70
2023-03-13T21:17:23.068Z,4.43
2023-03-13T21:19:51.140Z,5.07
2023-03-13T21:22:19.247Z,4.13
2023-03-13T21:24:49.428Z,3.50
2023-03-13T21:27:17.928Z,3.57
2023-03-13T21:29:47.335Z,4.60
2023-03-13T21:32:16.084Z,4.17
2023-03-13T21:34:45.730Z,3.87
2023-03-13T21:37:14.546Z,6.80
2023-03-13T21:39:42.697Z,3.93
2023-03-13T21:42:12.653Z,3.77
2023-03-13T21:44:41.296Z,3.17
2023-03-13T21:47:09.441Z,2.83
2023-03-13T21:49:37.576Z,3.57
2023-03-13T21:52:07.102Z,2.40
2023-03-13T21:54:35.190Z,2.63
2023-03-13T21:57:03.281Z,2.93
2023-03-13T21:59:32.072Z,2.47
2023-03-13T22:02:00.227Z,2.27
2023-03-13T22:04:28.537Z,2.33
2023-03-13T22:06:56.666Z,2.03
2023-03-13T22:09:26.596Z,2.53
2023-03-13T22:11:54.754Z,2.63
2023-03-13T22:14:22.830Z,2.53
2023-03-13T22:16:51.094Z,2.40
2023-03-13T22:19:19.195Z,2.20
2023-03-13T22:30:30.634Z,2.20
2023-03-13T22:32:58.750Z,2.33
2023-03-13T22:35:26.873Z,1.93
2023-03-13T22:37:55.017Z,1.73
2023-03-13T22:40:23.114Z,2.97
2023-03-13T22:42:51.765Z,1.93
2023-03-13T22:45:20.084Z,2.20
2023-03-13T22:47:49.866Z,2.50
2023-03-13T22:50:19.708Z,2.40
2023-03-13T22:52:47.828Z,2.30
2023-03-13T22:55:15.915Z,2.17
2023-03-13T22:57:43.982Z,2.10
2023-03-13T23:00:13.392Z,2.20
2023-03-13T23:02:41.520Z,2.50
2023-03-13T23:05:11.337Z,2.00
2023-03-13T23:07:40.967Z,2.50
2023-03-13T23:10:11.562Z,1.67
2023-03-13T23:12:39.955Z,2.17
2023-03-13T23:15:09.707Z,2.13
2023-03-13T23:17:38.540Z,2.07
2023-03-13T23:20:12.878Z,1.57
2023-03-13T23:22:42.932Z,1.80
2023-03-13T23:25:12.340Z,2.70
2023-03-13T23:27:40.912Z,2.47
2023-03-13T23:30:11.977Z,2.33
2023-03-13T23:32:42.092Z,2.20
2023-03-13T23:35:10.896Z,2.03
2023-03-13T23:37:38.957Z,1.90
2023-03-13T23:40:11.956Z,2.20
2023-03-13T23:42:40.058Z,2.70
2023-03-13T23:45:09.267Z,1.73
2023-03-13T23:47:37.410Z,2.20
2023-03-13T23:50:06.399Z,1.70
2023-03-13T23:52:35.420Z,2.07
2023-03-13T23:55:04.444Z,1.87
2023-03-13T23:57:34.261Z,1.70
